Terminal Aerodrome Forecast
Issued by NWS Medford, OR

Home | Current Version | Previous Version | Text Only | Print | Product List | Glossary On
Versions: 1 2 3 4 5 6 7 8 9 10 11 12 13 14 15 16 17
000
FTUS46 KMFR 281145
TAFMFR
TAF
KMFR 281145Z 2812/2912 VRB03KT P6SM -SHRA SCT015 BKN030 OVC040
     FM281300 VRB03KT P6SM -SHRA BKN015 BKN030 OVC040
     FM281600 VRB03KT P6SM VCSH FEW015 SCT025 OVC035
     FM282000 32003KT P6SM VCSH SCT035 BKN050=

USA.gov is the U.S. government's official web portal to all federal, state and local government web resources and services.